Time;durP1;ratioP1;P1;durP2;ratioP2;P2;SDS_P1;SDS_P2;PMS_P1;PMS_P2;Temp;Humidity;BMP_temperature;BMP_pressure;BME280_temperature;BME280_humidity;BME280_pressure;Samples;Min_cycle;Max_cycle;Signal;HPM_P1;HPM_P2
2024/03/06 00:00:25;;;;;;;0.20;0.20;;;;;;;8.81;78.68;101243.25;4916745;29;20036;-84
2024/03/06 00:02:51;;;;;;;0.20;0.20;;;;;;;8.71;79.19;101226.38;4932060;29;20043;-83
2024/03/06 00:05:16;;;;;;;0.20;0.20;;;;;;;8.67;79.09;101220.47;4916571;29;20035;-84
2024/03/06 00:07:42;;;;;;;0.20;0.20;;;;;;;8.82;78.73;101235.47;4900824;29;20032;-84
2024/03/06 00:10:08;;;;;;;0.20;0.20;;;;;;;8.76;78.79;101234.84;4932367;29;20027;-84
2024/03/06 00:12:34;;;;;;;0.20;0.20;;;;;;;8.70;78.91;101233.28;4916275;29;20047;-85
2024/03/06 00:14:59;;;;;;;0.20;0.20;;;;;;;8.66;79.74;101243.75;4916228;29;20066;-84
2024/03/06 00:17:25;;;;;;;0.20;0.20;;;;;;;8.64;79.77;101236.03;4932116;29;20031;-84
2024/03/06 00:19:51;;;;;;;0.20;0.20;;;;;;;8.63;79.71;101245.50;4932020;29;20039;-84
2024/03/06 00:22:17;;;;;;;0.20;0.20;;;;;;;8.56;79.67;101238.03;4916306;29;20525;-84
2024/03/06 00:24:42;;;;;;;0.20;0.20;;;;;;;8.50;80.53;101233.06;4932162;29;20055;-84
2024/03/06 00:27:09;;;;;;;0.20;0.20;;;;;;;8.50;79.91;101233.06;4932470;29;20075;-83
2024/03/06 00:29:37;;;;;;;0.20;0.20;;;;;;;8.57;80.31;101244.88;4916524;29;20058;-84
2024/03/06 00:32:03;;;;;;;0.20;0.20;;;;;;;8.51;79.77;101234.75;4931919;29;20087;-84
2024/03/06 00:34:29;;;;;;;0.20;0.20;;;;;;;8.40;80.27;101229.06;4916372;29;20036;-84
2024/03/06 00:36:54;;;;;;;0.20;0.20;;;;;;;8.37;80.59;101247.22;4900548;29;20036;-84
2024/03/06 00:39:20;;;;;;;0.20;0.20;;;;;;;8.28;81.33;101232.84;4916415;29;20509;-84
2024/03/06 00:41:45;;;;;;;0.20;0.20;;;;;;;8.42;80.71;101237.59;4916667;29;20036;-84
2024/03/06 00:44:11;;;;;;;0.20;0.20;;;;;;;8.48;80.78;101234.84;4900503;29;20413;-84
2024/03/06 00:46:36;;;;;;;0.20;0.20;;;;;;;8.56;80.73;101249.19;4915806;29;20063;-84
2024/03/06 00:49:02;;;;;;;0.20;0.20;;;;;;;8.38;80.15;101236.00;4931863;29;20047;-84
2024/03/06 00:51:28;;;;;;;0.20;0.20;;;;;;;8.48;80.41;101245.16;4932034;29;20035;-84
2024/03/06 00:53:53;;;;;;;0.20;0.20;;;;;;;8.36;80.64;101235.19;4932222;29;20036;-84
2024/03/06 00:56:19;;;;;;;0.20;0.20;;;;;;;8.44;80.74;101259.00;4916163;29;20056;-84
2024/03/06 00:58:44;;;;;;;0.20;0.20;;;;;;;8.45;80.44;101258.13;4916048;29;20059;-83
2024/03/06 01:01:10;;;;;;;0.20;0.20;;;;;;;8.48;80.18;101255.47;4935219;29;20036;-84
2024/03/06 01:03:37;;;;;;;0.20;0.20;;;;;;;8.50;80.41;101253.69;4935635;29;20524;-83
2024/03/06 01:06:03;;;;;;;0.20;0.20;;;;;;;8.29;80.31;101243.09;4935356;29;20040;-84
2024/03/06 01:08:30;;;;;;;0.10;0.10;;;;;;;8.29;80.98;101265.44;4935324;29;20034;-85
2024/03/06 01:10:55;;;;;;;0.20;0.20;;;;;;;8.34;81.03;101267.00;4919949;29;20031;-84
2024/03/06 01:13:21;;;;;;;0.20;0.20;;;;;;;8.19;81.22;101248.56;4919664;29;20039;-83
2024/03/06 01:15:47;;;;;;;0.20;0.20;;;;;;;8.25;80.96;101264.69;4903469;29;20028;-84
2024/03/06 01:18:12;;;;;;;0.20;0.20;;;;;;;8.32;81.35;101273.09;4935283;29;20486;-84
2024/03/06 01:20:38;;;;;;;0.20;0.20;;;;;;;8.25;81.10;101280.13;4919413;29;20039;-84
2024/03/06 01:23:04;;;;;;;0.20;0.20;;;;;;;8.29;80.88;101276.59;4903722;29;20054;-84
2024/03/06 01:25:29;;;;;;;0.20;0.20;;;;;;;8.21;81.36;101280.28;4919308;29;20031;-84
2024/03/06 01:27:55;;;;;;;0.20;0.20;;;;;;;8.20;81.32;101273.44;4919155;29;20062;-84
2024/03/06 01:30:21;;;;;;;0.20;0.20;;;;;;;8.25;81.08;101268.97;4903171;29;20067;-85
2024/03/06 01:32:46;;;;;;;0.20;0.20;;;;;;;8.13;81.40;101275.34;4935026;29;20114;-84
2024/03/06 01:35:12;;;;;;;0.20;0.20;;;;;;;8.14;81.60;101273.59;4903458;29;20023;-83
2024/03/06 01:37:37;;;;;;;0.20;0.20;;;;;;;8.22;81.44;101285.41;4919155;29;20110;-83
2024/03/06 01:40:04;;;;;;;0.20;0.20;;;;;;;8.15;81.21;101283.88;4919138;29;20028;-84
2024/03/06 01:42:30;;;;;;;0.20;0.20;;;;;;;8.17;81.51;101281.28;4919221;29;20030;-85
2024/03/06 01:44:55;;;;;;;0.20;0.20;;;;;;;8.18;81.52;101278.66;4918771;29;20027;-83
2024/03/06 01:47:21;;;;;;;0.20;0.20;;;;;;;8.07;81.59;101280.69;4903240;29;20042;-84
2024/03/06 01:49:46;;;;;;;0.20;0.20;;;;;;;8.25;81.17;101290.44;4918622;29;20060;-84
2024/03/06 01:52:13;;;;;;;0.20;0.20;;;;;;;8.30;80.75;101285.19;4919031;29;20091;-83
2024/03/06 01:54:39;;;;;;;0.20;0.20;;;;;;;8.19;81.55;101277.75;4918621;29;20035;-84
2024/03/06 01:57:04;;;;;;;0.20;0.20;;;;;;;8.22;81.32;101285.41;4903095;29;20054;-83
2024/03/06 01:59:30;;;;;;;0.20;0.20;;;;;;;8.27;81.08;101288.69;4935157;29;20027;-84
2024/03/06 02:01:55;;;;;;;0.20;0.20;;;;;;;8.13;81.09;101280.50;4918498;29;20055;-85
2024/03/06 02:04:21;;;;;;;0.20;0.20;;;;;;;8.21;81.28;101280.28;4918814;29;20085;-83
2024/03/06 02:06:46;;;;;;;0.20;0.20;;;;;;;8.19;81.05;101270.03;4918558;29;20059;-84
2024/03/06 02:09:13;;;;;;;0.20;0.20;;;;;;;8.12;81.34;101265.94;4902780;29;20517;-84
2024/03/06 02:11:39;;;;;;;0.20;0.20;;;;;;;8.26;81.23;101287.00;4918596;29;20126;-83
2024/03/06 02:14:06;;;;;;;0.20;0.20;;;;;;;8.37;80.91;101288.47;4918290;29;20498;-84
2024/03/06 02:16:32;;;;;;;0.20;0.20;;;;;;;8.40;80.80;101283.22;4918658;29;20051;-83
2024/03/06 02:18:57;;;;;;;0.20;0.20;;;;;;;8.39;80.53;101291.84;4918463;29;20485;-83
2024/03/06 02:21:24;;;;;;;0.20;0.20;;;;;;;8.11;81.10;101274.53;4918106;29;20115;-84
2024/03/06 02:23:53;;;;;;;0.20;0.20;;;;;;;8.21;81.22;101291.44;4902598;29;20034;-84
2024/03/06 02:26:19;;;;;;;0.20;0.20;;;;;;;8.23;81.18;101292.22;4903293;29;20027;-84
2024/03/06 02:28:49;;;;;;;0.20;0.20;;;;;;;8.33;81.05;101283.34;4902069;29;20061;-83
2024/03/06 02:31:16;;;;;;;0.20;0.20;;;;;;;8.29;81.17;101292.06;4918467;29;20055;-83
2024/03/06 02:33:42;;;;;;;0.20;0.20;;;;;;;8.33;81.36;101288.50;4918161;29;20118;-84
2024/03/06 02:36:07;;;;;;;0.20;0.20;;;;;;;8.28;80.60;101274.91;4918232;29;20027;-86
2024/03/06 02:38:33;;;;;;;0.20;0.20;;;;;;;8.14;81.08;101266.72;4917932;29;20039;-83
2024/03/06 02:40:59;;;;;;;0.20;0.20;;;;;;;8.29;81.51;101289.50;4933859;29;20472;-84
2024/03/06 02:43:24;;;;;;;0.20;0.20;;;;;;;8.38;80.87;101300.47;4902085;29;20574;-84
2024/03/06 02:45:50;;;;;;;0.20;0.20;;;;;;;8.27;80.69;101268.06;4933473;29;20063;-83
2024/03/06 02:48:16;;;;;;;0.20;0.20;;;;;;;8.39;81.34;101294.41;4934723;29;20031;-84
2024/03/06 02:50:41;;;;;;;0.20;0.20;;;;;;;8.32;81.10;101296.28;4933774;29;20023;-84
2024/03/06 02:53:07;;;;;;;0.20;0.20;;;;;;;8.18;81.47;101291.53;4917774;29;20046;-83
2024/03/06 02:55:32;;;;;;;0.20;0.20;;;;;;;8.19;81.76;101290.66;4933489;29;20035;-84
2024/03/06 02:58:02;;;;;;;0.20;0.20;;;;;;;8.29;81.80;101292.06;4917649;29;20150;-84
2024/03/06 03:00:28;;;;;;;0.20;0.20;;;;;;;8.40;81.25;101294.38;4917776;29;20031;-84
2024/03/06 03:02:53;;;;;;;0.20;0.20;;;;;;;8.32;81.36;101291.97;4901807;29;20028;-83
2024/03/06 03:05:19;;;;;;;0.20;0.20;;;;;;;8.46;81.01;101298.50;4917680;29;20055;-84
2024/03/06 03:07:44;;;;;;;0.20;0.20;;;;;;;8.45;80.69;101296.78;4917277;29;20019;-84
2024/03/06 03:10:10;;;;;;;0.20;0.20;;;;;;;8.41;80.87;101295.22;4933228;29;20036;-85
2024/03/06 03:12:37;;;;;;;0.20;0.20;;;;;;;8.24;81.16;101282.78;4948786;29;20050;-84
2024/03/06 03:15:04;;;;;;;0.20;0.20;;;;;;;8.29;81.01;101266.28;4933492;29;20031;-84
2024/03/06 03:17:29;;;;;;;0.20;0.20;;;;;;;8.41;80.82;101287.47;4948986;29;20035;-84
2024/03/06 03:19:55;;;;;;;0.20;0.20;;;;;;;8.27;80.76;101285.28;4932887;29;20422;-84
2024/03/06 03:22:21;;;;;;;0.20;0.20;;;;;;;8.22;81.26;101290.56;4932821;29;20043;-84
2024/03/06 03:24:47;;;;;;;0.20;0.20;;;;;;;8.32;80.33;101302.28;4932633;29;20513;-84
2024/03/06 03:27:13;;;;;;;0.20;0.20;;;;;;;8.40;80.01;101301.25;4948585;29;20023;-83
2024/03/06 03:29:38;;;;;;;0.20;0.20;;;;;;;8.33;79.98;101278.19;4917071;29;20038;-83
2024/03/06 03:32:04;;;;;;;0.20;0.20;;;;;;;8.33;79.97;101301.41;4917018;29;20032;-84
2024/03/06 03:34:30;;;;;;;0.20;0.20;;;;;;;8.14;80.48;101277.03;4916859;29;20039;-84
2024/03/06 03:36:56;;;;;;;0.20;0.20;;;;;;;8.18;81.10;101291.53;4932938;29;20032;-84
2024/03/06 03:39:24;;;;;;;0.20;0.20;;;;;;;8.30;80.60;101304.06;4917150;29;20035;-84
2024/03/06 03:41:50;;;;;;;0.20;0.20;;;;;;;8.33;81.26;101303.13;4932495;29;20510;-84
2024/03/06 03:44:16;;;;;;;0.20;0.20;;;;;;;8.34;80.63;101303.13;4917066;29;20066;-83
2024/03/06 03:46:41;;;;;;;0.20;0.20;;;;;;;8.41;80.12;101305.53;4916837;29;20107;-84
2024/03/06 03:49:08;;;;;;;0.20;0.20;;;;;;;8.46;80.16;101298.50;4916492;29;20535;-84
2024/03/06 03:51:34;;;;;;;0.20;0.20;;;;;;;8.36;80.09;101286.75;4932273;29;20023;-84
2024/03/06 03:54:00;;;;;;;0.20;0.20;;;;;;;8.58;79.75;101305.88;4932511;29;20032;-84
2024/03/06 03:56:25;;;;;;;0.20;0.20;;;;;;;8.69;79.41;101305.56;4916770;29;20434;-84
2024/03/06 03:58:51;;;;;;;0.20;0.20;;;;;;;8.67;78.84;101307.34;4929475;29;20032;-84
2024/03/06 04:01:16;;;;;;;0.20;0.20;;;;;;;8.53;79.46;101306.00;4935400;29;20027;-84
2024/03/06 04:03:44;;;;;;;0.20;0.20;;;;;;;8.53;79.67;101302.56;4967152;28;20031;-84
2024/03/06 04:06:10;;;;;;;0.20;0.20;;;;;;;8.52;79.15;101303.47;4967211;28;20054;-84
2024/03/06 04:08:37;;;;;;;0.20;0.20;;;;;;;8.50;79.49;101310.41;4951065;28;20058;-84
2024/03/06 04:11:03;;;;;;;0.20;0.20;;;;;;;8.42;79.36;101294.31;4935278;29;20066;-84
2024/03/06 04:13:29;;;;;;;0.20;0.20;;;;;;;8.46;78.86;101294.19;4966959;28;20027;-84
2024/03/06 04:15:55;;;;;;;0.20;0.20;;;;;;;8.56;78.70;101311.09;4951243;29;20031;-84
2024/03/06 04:18:21;;;;;;;0.20;0.20;;;;;;;8.71;78.51;101325.25;4951036;29;20031;-84
2024/03/06 04:20:46;;;;;;;0.20;0.20;;;;;;;8.61;79.03;101326.41;4966640;28;20035;-84
2024/03/06 04:23:12;;;;;;;0.20;0.20;;;;;;;8.62;78.40;101330.69;4950802;29;20150;-84
2024/03/06 04:25:39;;;;;;;0.20;0.20;;;;;;;8.61;78.90;101334.16;4951049;29;20031;-83
2024/03/06 04:28:07;;;;;;;0.20;0.20;;;;;;;8.62;78.93;101333.25;4951024;28;20497;-85
2024/03/06 04:30:33;;;;;;;0.20;0.20;;;;;;;8.48;79.53;101328.50;4966626;28;20031;-84
2024/03/06 04:32:59;;;;;;;0.20;0.20;;;;;;;8.49;79.31;101342.25;4929908;29;20209;-86
2024/03/06 04:35:25;;;;;;;0.20;0.20;;;;;;;8.49;79.20;101332.78;4933716;29;20076;-84
2024/03/06 04:37:50;;;;;;;0.10;0.10;;;;;;;8.65;78.64;101334.88;4935287;29;20024;-85
2024/03/06 04:40:17;;;;;;;0.20;0.20;;;;;;;8.56;78.66;101333.47;4935907;29;20450;-84
2024/03/06 04:42:46;;;;;;;0.20;0.20;;;;;;;8.54;79.23;101342.94;4919843;29;20038;-84
2024/03/06 04:45:14;;;;;;;0.20;0.20;;;;;;;8.46;79.36;101330.31;4920090;29;20024;-84
2024/03/06 04:47:40;;;;;;;0.20;0.20;;;;;;;8.44;79.25;101319.16;4935718;29;20027;-84
2024/03/06 04:50:10;;;;;;;0.20;0.20;;;;;;;8.51;79.29;101319.84;4951442;29;20055;-84
2024/03/06 04:52:36;;;;;;;0.20;0.20;;;;;;;8.53;78.97;101320.63;4935384;29;20033;-85
2024/03/06 04:55:03;;;;;;;0.20;0.20;;;;;;;8.61;79.02;101340.16;4935215;29;20039;-83
2024/03/06 04:57:28;;;;;;;0.20;0.20;;;;;;;8.68;78.78;101350.31;4935237;29;20035;-84
2024/03/06 04:59:54;;;;;;;0.20;0.20;;;;;;;8.63;78.94;101342.69;4951347;29;20110;-84
2024/03/06 05:02:19;;;;;;;0.20;0.20;;;;;;;8.67;78.64;101343.44;4935148;29;20482;-84
2024/03/06 05:04:46;;;;;;;0.20;0.20;;;;;;;8.64;78.61;101344.38;4918990;29;20024;-83
2024/03/06 05:07:13;;;;;;;0.20;0.20;;;;;;;8.64;78.79;101346.94;4936412;29;20036;-84
2024/03/06 05:09:40;;;;;;;0.20;0.20;;;;;;;8.73;78.37;101353.56;4934211;29;20051;-85
2024/03/06 05:12:06;;;;;;;0.20;0.20;;;;;;;8.72;78.24;101351.88;4935030;29;20042;-84
2024/03/06 05:14:32;;;;;;;0.20;0.20;;;;;;;8.73;77.93;101346.69;4922713;29;20391;-85
2024/03/06 05:16:57;;;;;;;0.20;0.20;;;;;;;8.74;77.93;101350.94;4933911;29;20059;-85
2024/03/06 05:19:23;;;;;;;0.20;0.20;;;;;;;8.70;78.19;101343.34;4944327;29;20394;-83
2024/03/06 05:21:48;;;;;;;0.20;0.20;;;;;;;8.72;78.12;101354.47;4935905;29;20103;-91
2024/03/06 05:24:14;;;;;;;0.20;0.20;;;;;;;8.56;78.76;101346.34;4955856;28;20035;-91
2024/03/06 05:26:39;;;;;;;0.20;0.20;;;;;;;8.68;78.60;101360.63;4949278;28;20043;-92
2024/03/06 05:29:05;;;;;;;0.20;0.20;;;;;;;8.71;78.50;101363.09;4954859;29;20047;-92
2024/03/06 05:31:30;;;;;;;0.20;0.20;;;;;;;8.78;77.81;101367.19;4935584;29;20046;-91
2024/03/06 05:33:56;;;;;;;0.20;0.20;;;;;;;8.69;77.83;101344.25;4919903;29;20027;-89
2024/03/06 05:36:21;;;;;;;0.20;0.20;;;;;;;8.83;77.81;101366.16;4935813;29;20441;-90
2024/03/06 05:38:48;;;;;;;0.20;0.20;;;;;;;8.84;78.07;101367.84;4931736;29;20028;-83
2024/03/06 05:41:15;;;;;;;0.20;0.20;;;;;;;8.77;78.13;101358.63;4935917;29;20035;-83
2024/03/06 05:43:40;;;;;;;0.20;0.20;;;;;;;8.81;78.00;101365.34;4935410;29;20583;-85
2024/03/06 05:46:06;;;;;;;0.20;0.20;;;;;;;8.70;78.37;101359.69;4932546;29;20028;-86
2024/03/06 05:48:33;;;;;;;0.20;0.20;;;;;;;8.80;78.18;101381.72;4933627;29;20043;-85
2024/03/06 05:50:59;;;;;;;0.20;0.20;;;;;;;8.69;78.68;101360.56;4933710;29;20036;-83
2024/03/06 05:53:24;;;;;;;0.20;0.20;;;;;;;8.49;78.65;101350.84;4934481;29;20035;-87
2024/03/06 05:55:50;;;;;;;0.20;0.20;;;;;;;8.71;78.90;101379.41;4900152;29;20035;-84
2024/03/06 05:58:16;;;;;;;0.20;0.20;;;;;;;8.53;79.01;101356.72;4933113;29;20078;-84
2024/03/06 06:00:42;;;;;;;0.20;0.20;;;;;;;8.65;79.27;101386.47;4938600;29;20023;-83
2024/03/06 06:03:08;;;;;;;0.20;0.20;;;;;;;8.79;78.75;101395.53;4933159;29;20059;-92
2024/03/06 06:05:35;;;;;;;0.20;0.20;;;;;;;8.86;78.44;101394.47;4925106;29;20055;-85
2024/03/06 06:08:01;;;;;;;0.20;0.20;;;;;;;8.85;78.67;101390.19;4961085;28;20027;-85
2024/03/06 06:10:26;;;;;;;0.20;0.20;;;;;;;8.81;78.06;101388.56;4937288;29;20486;-85
2024/03/06 06:12:52;;;;;;;0.20;0.20;;;;;;;8.76;77.15;101377.56;4937541;29;20102;-88
2024/03/06 06:15:18;;;;;;;0.20;0.20;;;;;;;8.83;77.26;101393.69;4943772;29;20043;-86
2024/03/06 06:17:44;;;;;;;0.20;0.20;;;;;;;8.69;77.60;101373.47;4917471;29;20122;-82
2024/03/06 06:20:14;;;;;;;0.20;0.20;;;;;;;8.73;77.96;101380.22;4933940;29;20482;-86
2024/03/06 06:22:40;;;;;;;0.20;0.20;;;;;;;8.81;77.75;101390.31;4931008;29;20032;-86
2024/03/06 06:25:07;;;;;;;0.20;0.20;;;;;;;8.84;76.84;101385.91;4934186;29;20028;-87
2024/03/06 06:27:33;;;;;;;0.20;0.20;;;;;;;8.94;77.08;101399.38;4932452;29;20042;-84
2024/03/06 06:29:59;;;;;;;0.20;0.20;;;;;;;9.08;76.58;101401.56;4926320;29;20032;-89
2024/03/06 06:32:24;;;;;;;0.20;0.20;;;;;;;9.14;76.75;101396.19;4946902;29;20035;-86
2024/03/06 06:34:50;;;;;;;0.20;0.20;;;;;;;9.24;76.85;101399.34;4943442;28;20039;-89
2024/03/06 06:37:15;;;;;;;0.20;0.20;;;;;;;9.18;77.04;101387.47;4915832;29;20024;-90
2024/03/06 06:39:41;;;;;;;0.20;0.20;;;;;;;9.26;76.21;101395.00;4941129;28;20035;-93
2024/03/06 06:42:08;;;;;;;0.20;0.20;;;;;;;9.29;76.48;101398.31;4936776;29;20036;-90
2024/03/06 06:44:34;;;;;;;0.20;0.20;;;;;;;9.28;75.74;101394.03;4938805;29;20031;-92
2024/03/06 06:46:59;;;;;;;0.20;0.20;;;;;;;9.27;75.64;101392.34;4937370;28;20039;-88
2024/03/06 06:49:25;;;;;;;0.20;0.20;;;;;;;9.19;74.90;101395.16;4952599;29;20055;-92
2024/03/06 06:51:50;;;;;;;0.20;0.20;;;;;;;9.23;75.09;101401.06;4917447;29;20036;-86
2024/03/06 06:54:16;;;;;;;0.20;0.20;;;;;;;9.19;75.73;101404.66;4932321;29;20055;-87
2024/03/06 06:56:42;;;;;;;0.20;0.20;;;;;;;9.24;75.62;101410.50;4932016;29;20058;-92
2024/03/06 06:59:08;;;;;;;0.20;0.20;;;;;;;9.16;75.31;101394.44;4934252;29;20374;-87
2024/03/06 07:01:33;;;;;;;0.20;0.20;;;;;;;9.39;74.45;101406.63;4952281;29;20035;-92
2024/03/06 07:03:59;;;;;;;0.20;0.20;;;;;;;9.29;74.46;101400.06;4971168;28;20031;-89
2024/03/06 07:06:25;;;;;;;0.20;0.20;;;;;;;9.13;74.81;101384.19;4936884;28;20040;-90
2024/03/06 07:08:50;;;;;;;0.20;0.20;;;;;;;9.21;75.19;101408.03;4893282;29;20031;-86
2024/03/06 07:11:20;;;;;;;0.20;0.20;;;;;;;9.23;74.29;101410.56;4952522;29;20090;-86
2024/03/06 07:13:45;;;;;;;0.20;0.20;;;;;;;9.20;74.74;101406.34;4941027;29;20024;-92
2024/03/06 07:16:11;;;;;;;0.20;0.20;;;;;;;9.19;75.15;101415.81;4935481;29;20055;-88
2024/03/06 07:18:37;;;;;;;0.20;0.20;;;;;;;9.22;75.46;101417.47;4936919;29;20480;-87
2024/03/06 07:21:02;;;;;;;0.20;0.20;;;;;;;9.13;75.23;101394.50;4936929;29;20039;-90
2024/03/06 07:23:28;;;;;;;0.20;0.20;;;;;;;9.20;74.60;101383.09;4933601;29;20035;-84
2024/03/06 07:25:53;;;;;;;0.20;0.20;;;;;;;9.43;74.64;101421.94;4947578;29;20036;-85
2024/03/06 07:28:20;;;;;;;0.20;0.20;;;;;;;9.52;74.04;101417.41;4944639;29;20031;-89
2024/03/06 07:30:46;;;;;;;0.20;0.20;;;;;;;9.55;74.54;101417.31;4915534;29;20028;-92
2024/03/06 07:33:13;;;;;;;0.20;0.20;;;;;;;9.64;75.35;101412.69;4904415;29;20035;-91
2024/03/06 07:35:39;;;;;;;0.20;0.20;;;;;;;9.68;76.76;101409.09;4930295;28;20078;-88
2024/03/06 07:38:05;;;;;;;0.20;0.20;;;;;;;9.76;73.87;101421.78;4930497;29;20063;-91
2024/03/06 07:40:31;;;;;;;0.20;0.20;;;;;;;9.78;73.29;101415.66;4914652;29;20032;-86
2024/03/06 07:42:57;;;;;;;0.20;0.20;;;;;;;9.80;73.16;101402.69;4922809;29;20067;-84
2024/03/06 07:45:23;;;;;;;0.20;0.20;;;;;;;9.85;72.38;101403.41;4947294;29;20478;-86
2024/03/06 07:47:48;;;;;;;0.20;0.20;;;;;;;9.87;71.96;101409.34;4932415;29;20486;-92
2024/03/06 07:50:18;;;;;;;0.20;0.20;;;;;;;9.93;73.02;101410.88;4947501;29;20556;-86
2024/03/06 07:52:45;;;;;;;0.20;0.20;;;;;;;9.99;72.12;101418.44;4937737;29;20042;-89
2024/03/06 07:55:10;;;;;;;0.20;0.20;;;;;;;9.88;73.15;101426.53;4952191;29;20148;-91
2024/03/06 07:57:36;;;;;;;0.20;0.20;;;;;;;10.43;74.61;101429.88;4936151;29;20142;-86
2024/03/06 08:00:08;;;;;;;0.20;0.20;;;;;;;10.42;71.06;101428.19;4923710;29;20664;-86
2024/03/06 08:02:35;;;;;;;0.20;0.20;;;;;;;10.27;71.57;101418.34;4951025;28;20027;-86
2024/03/06 08:05:01;;;;;;;0.20;0.20;;;;;;;10.13;71.46;101415.34;4930424;29;20541;-86
2024/03/06 08:07:27;;;;;;;0.20;0.20;;;;;;;10.23;71.26;101425.38;4908932;29;20075;-92
2024/03/06 08:09:54;;;;;;;0.20;0.20;;;;;;;10.17;71.47;101427.31;4921158;29;20572;-90
2024/03/06 08:12:19;;;;;;;0.20;0.20;;;;;;;10.06;71.41;101428.50;4920838;29;20051;-91
2024/03/06 08:14:45;;;;;;;0.20;0.20;;;;;;;10.03;71.42;101433.78;4956191;28;20494;-93
2024/03/06 08:17:13;;;;;;;0.20;0.20;;;;;;;9.87;72.00;101424.00;4920386;29;20032;-93
2024/03/06 08:19:39;;;;;;;0.20;0.20;;;;;;;9.79;72.17;101408.75;4933243;29;20035;-92
2024/03/06 08:22:04;;;;;;;0.20;0.20;;;;;;;9.89;72.15;101425.63;4916261;29;20130;-90
2024/03/06 08:24:30;;;;;;;0.20;0.20;;;;;;;9.94;72.51;101430.69;4919887;29;20054;-83
2024/03/06 08:26:56;;;;;;;0.20;0.20;;;;;;;10.12;72.42;101432.63;4949835;28;20040;-91
2024/03/06 08:29:23;;;;;;;0.20;0.20;;;;;;;10.14;72.83;101437.75;4936618;28;20019;-93
2024/03/06 08:31:48;;;;;;;0.20;0.20;;;;;;;10.18;72.53;101440.16;4964461;28;20039;-88
2024/03/06 08:34:16;;;;;;;0.20;0.20;;;;;;;10.32;71.31;101442.31;4955128;28;20087;-88
2024/03/06 08:36:42;;;;;;;0.20;0.20;;;;;;;10.33;71.08;101431.09;4912705;29;20498;-86
2024/03/06 08:39:11;;;;;;;0.20;0.20;;;;;;;10.46;71.71;101440.09;4896839;29;20195;-87
2024/03/06 08:41:37;;;;;;;0.20;0.20;;;;;;;10.49;70.90;101437.38;4926347;29;20426;-87
2024/03/06 08:44:03;;;;;;;0.20;0.20;;;;;;;10.59;70.36;101437.91;4960453;28;20032;-85
2024/03/06 08:46:28;;;;;;;0.20;0.20;;;;;;;10.68;70.02;101436.72;4965414;28;20058;-87
2024/03/06 08:48:54;;;;;;;0.20;0.20;;;;;;;10.73;69.50;101446.03;4950684;29;20065;-91
2024/03/06 08:51:21;;;;;;;0.20;0.20;;;;;;;10.65;69.70;101435.09;4948405;28;20490;-87
2024/03/06 08:53:49;;;;;;;0.20;0.20;;;;;;;10.71;70.44;101449.53;4917965;29;20063;-93
2024/03/06 08:56:15;;;;;;;0.20;0.20;;;;;;;10.76;69.03;101443.31;4929641;29;20059;-84
2024/03/06 08:58:41;;;;;;;0.20;0.20;;;;;;;10.83;69.37;101446.53;4927342;29;20062;-85
2024/03/06 09:01:07;;;;;;;0.20;0.20;;;;;;;10.77;69.18;101446.75;4950312;28;20062;-82
2024/03/06 09:03:32;;;;;;;0.20;0.20;;;;;;;10.82;69.50;101442.25;4947584;29;21019;-84
2024/03/06 09:05:59;;;;;;;0.20;0.20;;;;;;;10.99;68.45;101445.03;4931676;29;20075;-89
2024/03/06 09:08:25;;;;;;;0.20;0.20;;;;;;;10.77;68.38;101420.88;4935741;29;20114;-86
2024/03/06 09:10:50;;;;;;;0.20;0.20;;;;;;;10.88;69.55;101436.84;4929523;29;20039;-89
2024/03/06 09:13:16;;;;;;;0.20;0.20;;;;;;;11.05;69.31;101449.16;4896485;29;20028;-84
2024/03/06 09:15:41;;;;;;;0.20;0.20;;;;;;;11.11;68.25;101460.16;4932980;29;20046;-87
2024/03/06 09:18:07;;;;;;;0.20;0.20;;;;;;;11.00;67.93;101431.19;4930761;29;20153;-87
2024/03/06 09:20:33;;;;;;;0.20;0.20;;;;;;;11.12;68.15;101456.66;4930968;29;20406;-88
2024/03/06 09:23:00;;;;;;;0.20;0.20;;;;;;;11.14;68.97;101448.81;4950298;28;20446;-83
2024/03/06 09:25:25;;;;;;;0.20;0.20;;;;;;;11.06;69.21;101443.06;4945380;29;20426;-87
2024/03/06 09:27:51;;;;;;;0.17;0.17;;;;;;;11.13;69.29;101445.38;4942871;29;20028;-90
2024/03/06 09:30:16;;;;;;;0.20;0.20;;;;;;;11.14;68.86;101449.66;4915775;29;20028;-83
2024/03/06 09:32:44;;;;;;;0.20;0.20;;;;;;;11.15;69.63;101446.16;4915311;29;20028;-85
2024/03/06 09:35:09;;;;;;;0.20;0.20;;;;;;;11.17;68.67;101444.34;4930273;29;20119;-92
2024/03/06 09:37:35;;;;;;;0.20;0.20;;;;;;;11.12;68.83;101414.38;4915736;29;20553;-84
2024/03/06 09:40:01;;;;;;;0.20;0.20;;;;;;;11.36;69.85;101433.28;4931192;29;20470;-86
2024/03/06 09:42:26;;;;;;;0.20;0.20;;;;;;;11.46;68.81;101440.63;4934187;29;20048;-91
2024/03/06 09:44:52;;;;;;;0.20;0.20;;;;;;;11.30;68.27;101444.72;4930948;29;20415;-89
2024/03/06 09:47:22;;;;;;;0.20;0.20;;;;;;;11.20;67.59;101407.13;4931721;29;20159;-85
2024/03/06 09:49:48;;;;;;;0.20;0.20;;;;;;;11.29;67.89;101435.25;4914267;29;20048;-84
2024/03/06 09:52:14;;;;;;;0.20;0.20;;;;;;;11.42;69.58;101451.19;4950244;29;20505;-86
2024/03/06 09:54:39;;;;;;;0.20;0.20;;;;;;;11.55;68.59;101444.59;4934607;29;20043;-89
2024/03/06 09:57:05;;;;;;;0.20;0.20;;;;;;;11.63;68.42;101442.56;4903304;29;20036;-87
2024/03/06 09:59:31;;;;;;;0.20;0.20;;;;;;;11.65;69.07;101448.50;4933863;29;20027;-85
2024/03/06 10:01:58;;;;;;;0.20;0.20;;;;;;;11.57;67.65;101445.38;4917956;29;20556;-84
2024/03/06 10:04:27;;;;;;;0.20;0.20;;;;;;;11.49;67.48;101439.66;4915498;29;20087;-93
2024/03/06 10:06:57;;;;;;;0.20;0.20;;;;;;;11.31;68.22;101440.41;4906052;29;20036;-89
2024/03/06 10:09:23;;;;;;;0.20;0.20;;;;;;;11.21;68.68;101442.50;4936419;29;20058;-89
2024/03/06 10:11:49;;;;;;;0.20;0.20;;;;;;;11.46;69.32;101444.97;4950293;29;20031;-83
2024/03/06 10:14:14;;;;;;;0.20;0.20;;;;;;;11.28;68.33;101435.31;4918540;29;20032;-92
2024/03/06 10:16:58;;;;;;;0.20;0.20;;;;;;;11.22;69.60;101439.00;4933936;29;20034;-93
2024/03/06 10:19:27;;;;;;;0.20;0.20;;;;;;;11.41;69.59;101445.16;4952772;29;20047;-92
2024/03/06 10:21:53;;;;;;;0.20;0.20;;;;;;;11.43;69.16;101439.91;4932435;29;20134;-92
2024/03/06 10:24:25;;;;;;;0.20;0.20;;;;;;;11.40;68.71;101445.19;4947040;29;20048;-85
2024/03/06 10:26:53;;;;;;;0.20;0.20;;;;;;;11.39;69.01;101434.00;4937579;29;20053;-90
2024/03/06 10:29:19;;;;;;;0.20;0.20;;;;;;;12.19;72.93;101443.72;4923169;29;20123;-84
2024/03/06 10:31:51;;;;;;;0.20;0.20;;;;;;;14.18;64.75;101432.69;4917788;29;20102;-84
2024/03/06 10:34:17;;;;;;;0.20;0.20;;;;;;;13.64;60.47;101435.34;4913140;29;20086;-84
2024/03/06 10:36:44;;;;;;;0.20;0.20;;;;;;;12.88;62.02;101421.63;4968293;28;20036;-85
2024/03/06 10:39:11;;;;;;;0.20;0.20;;;;;;;12.48;63.84;101435.53;4942954;29;20055;-89
2024/03/06 10:41:37;;;;;;;0.20;0.20;;;;;;;12.28;65.04;101431.19;4933562;29;20498;-90
2024/03/06 10:44:02;;;;;;;0.20;0.20;;;;;;;12.05;65.23;101429.59;4954449;28;20047;-93
2024/03/06 10:46:28;;;;;;;0.20;0.20;;;;;;;11.72;66.61;101405.91;4907922;29;20031;-91
2024/03/06 10:48:55;;;;;;;0.20;0.20;;;;;;;11.78;67.36;101426.34;4937035;29;20051;-92
2024/03/06 10:51:21;;;;;;;0.20;0.20;;;;;;;11.46;67.21;101399.16;4952789;29;20031;-92
2024/03/06 10:53:46;;;;;;;0.20;0.20;;;;;;;11.44;68.06;101392.38;4932312;29;20087;-86
2024/03/06 10:56:12;;;;;;;0.15;0.15;;;;;;;11.40;67.52;101402.00;4917001;29;20028;-88
2024/03/06 10:58:38;;;;;;;0.20;0.20;;;;;;;11.33;68.69;101394.56;4933336;29;20035;-88
2024/03/06 11:01:03;;;;;;;0.20;0.20;;;;;;;11.27;69.11;101380.09;4902059;29;20042;-92
2024/03/06 11:03:30;;;;;;;0.20;0.20;;;;;;;11.54;68.41;101396.28;4931614;29;20477;-88
2024/03/06 11:05:56;;;;;;;0.20;0.20;;;;;;;11.59;68.38;101394.31;4934142;29;20066;-83
2024/03/06 11:08:22;;;;;;;0.20;0.20;;;;;;;11.60;68.31;101397.75;4930791;29;20032;-87
2024/03/06 11:10:48;;;;;;;0.20;0.20;;;;;;;11.53;68.35;101388.56;4897611;29;20190;-92
2024/03/06 11:13:20;;;;;;;0.20;0.20;;;;;;;11.63;68.49;101375.16;4915888;29;20035;-87
2024/03/06 11:15:46;;;;;;;0.20;0.20;;;;;;;11.67;68.24;101376.72;4916136;29;20039;-86
2024/03/06 11:18:36;;;;;;;0.20;0.20;;;;;;;11.72;68.13;101374.78;4925597;29;20055;-90
2024/03/06 11:21:02;;;;;;;0.20;0.20;;;;;;;11.73;67.94;101381.66;4933863;29;20540;-87
2024/03/06 11:23:27;;;;;;;0.20;0.20;;;;;;;11.88;67.89;101368.97;4934282;29;20028;-92
2024/03/06 11:25:53;;;;;;;0.20;0.20;;;;;;;11.88;67.85;101368.97;4951758;28;20060;-91